createdAt,value
2022-09-20T00:00:42.897Z,11.36
2022-09-20T00:01:42.895Z,11.43
2022-09-20T00:02:42.773Z,11.41
2022-09-20T00:03:42.753Z,11.44
2022-09-20T00:04:42.798Z,11.43
2022-09-20T00:05:42.773Z,11.35
2022-09-20T00:06:42.719Z,11.44
2022-09-20T00:07:42.714Z,11.36
2022-09-20T00:08:42.707Z,11.44
2022-09-20T00:09:42.690Z,11.43
2022-09-20T00:10:42.724Z,11.35
2022-09-20T00:11:42.676Z,11.44
2022-09-20T00:12:42.662Z,11.52
2022-09-20T00:13:42.657Z,11.43
2022-09-20T00:14:42.640Z,11.45
2022-09-20T00:15:42.653Z,11.41
2022-09-20T00:16:42.694Z,11.45
2022-09-20T00:17:42.617Z,11.37
2022-09-20T00:18:42.608Z,11.37
2022-09-20T00:19:42.593Z,11.40
2022-09-20T00:20:42.573Z,11.40
2022-09-20T00:21:42.572Z,11.40
2022-09-20T00:22:42.578Z,11.47
2022-09-20T00:23:42.545Z,11.45
2022-09-20T00:24:46.783Z,11.52
2022-09-20T00:25:43.526Z,11.47
2022-09-20T00:26:42.523Z,11.41
2022-09-20T00:27:42.511Z,11.45
2022-09-20T00:28:42.494Z,11.41
2022-09-20T00:29:42.484Z,11.44
2022-09-20T00:30:42.474Z,11.43
2022-09-20T00:31:42.522Z,11.35
2022-09-20T00:32:42.492Z,11.37
2022-09-20T00:33:42.441Z,11.45
2022-09-20T00:34:42.419Z,11.40
2022-09-20T00:35:42.409Z,11.43
2022-09-20T00:36:42.399Z,11.41
2022-09-20T00:37:42.386Z,11.40
2022-09-20T00:38:42.395Z,11.41
2022-09-20T00:39:42.384Z,11.43
2022-09-20T00:40:42.508Z,11.29
2022-09-20T00:41:42.341Z,11.32
2022-09-20T00:42:42.366Z,11.33
2022-09-20T00:43:42.335Z,11.32
2022-09-20T00:44:42.326Z,11.35
2022-09-20T00:45:42.379Z,11.35
2022-09-20T00:46:42.294Z,11.25
2022-09-20T00:47:42.287Z,11.35
2022-09-20T00:48:42.270Z,11.37
2022-09-20T00:49:42.273Z,11.40
2022-09-20T00:50:42.254Z,11.33
2022-09-20T00:51:42.241Z,11.22
2022-09-20T00:52:42.229Z,11.25
2022-09-20T00:53:42.221Z,11.22
2022-09-20T00:54:42.225Z,11.22
2022-09-20T00:55:42.192Z,11.27
2022-09-20T00:56:42.192Z,11.30
2022-09-20T00:57:42.167Z,11.37
2022-09-20T00:58:42.188Z,11.33
2022-09-20T00:59:42.177Z,11.26
2022-09-20T01:00:42.211Z,11.41
2022-09-20T01:01:42.212Z,11.29
2022-09-20T01:02:42.212Z,11.37
2022-09-20T01:03:42.122Z,11.27
2022-09-20T01:04:42.109Z,11.37
2022-09-20T01:05:42.108Z,11.40
2022-09-20T01:06:42.074Z,11.40
2022-09-20T01:07:42.061Z,11.37
2022-09-20T01:08:42.057Z,11.36
2022-09-20T01:09:42.065Z,11.44
2022-09-20T01:10:42.030Z,11.33
2022-09-20T01:11:42.018Z,11.40
2022-09-20T01:12:42.206Z,11.41
2022-09-20T01:13:42.002Z,11.32
2022-09-20T01:14:42.023Z,11.33
2022-09-20T01:15:41.976Z,11.25
2022-09-20T01:16:42.024Z,11.32
2022-09-20T01:17:41.965Z,11.25
2022-09-20T01:18:41.943Z,11.26
2022-09-20T01:19:41.943Z,11.30
2022-09-20T01:20:41.929Z,11.35
2022-09-20T01:21:41.929Z,11.33
2022-09-20T01:22:41.910Z,11.33
2022-09-20T01:23:41.897Z,11.30
2022-09-20T01:24:41.888Z,11.32
2022-09-20T01:25:41.871Z,11.29
2022-09-20T01:26:41.879Z,11.30
2022-09-20T01:27:41.873Z,11.26
2022-09-20T01:28:41.847Z,11.27
2022-09-20T01:29:41.828Z,11.26
2022-09-20T01:30:41.840Z,11.32
2022-09-20T01:31:41.849Z,11.29
2022-09-20T01:32:41.797Z,11.27
2022-09-20T01:33:41.789Z,11.26
2022-09-20T01:34:41.780Z,11.22
2022-09-20T01:35:41.778Z,11.29
2022-09-20T01:36:41.751Z,11.27
2022-09-20T01:37:41.748Z,11.33
2022-09-20T01:38:41.742Z,11.23
2022-09-20T01:39:41.729Z,11.27
2022-09-20T01:40:41.760Z,11.25
2022-09-20T01:41:41.704Z,11.23
2022-09-20T01:42:41.685Z,11.19
2022-09-20T01:43:41.674Z,11.19
2022-09-20T01:44:41.685Z,11.19
2022-09-20T01:45:41.706Z,11.17
2022-09-20T01:46:41.669Z,11.15
2022-09-20T01:47:41.644Z,11.08
2022-09-20T01:48:41.626Z,11.11
2022-09-20T01:49:41.615Z,11.04
2022-09-20T01:50:41.622Z,11.02
2022-09-20T01:51:41.607Z,11.04
2022-09-20T01:52:41.605Z,10.96
2022-09-20T01:53:41.571Z,10.99
2022-09-20T01:54:41.571Z,10.99
2022-09-20T01:55:41.542Z,11.02
2022-09-20T01:56:41.556Z,10.96
2022-09-20T01:57:41.531Z,11.02
2022-09-20T01:58:41.510Z,10.96
2022-09-20T01:59:41.512Z,11.02
2022-09-20T02:00:41.498Z,10.97
2022-09-20T02:01:41.489Z,10.89
2022-09-20T02:02:41.555Z,10.92
2022-09-20T02:03:41.477Z,10.92
2022-09-20T02:04:41.474Z,10.96
2022-09-20T02:05:41.440Z,10.97
2022-09-20T02:06:41.432Z,11.00
2022-09-20T02:07:41.416Z,10.99
2022-09-20T02:08:41.418Z,10.97
2022-09-20T02:09:41.393Z,11.02
2022-09-20T02:10:41.395Z,11.00
2022-09-20T02:11:41.377Z,11.04
2022-09-20T02:12:41.371Z,11.04
2022-09-20T02:13:41.375Z,11.10
2022-09-20T02:14:41.349Z,11.00
2022-09-20T02:15:41.327Z,11.07
2022-09-20T02:16:41.421Z,11.14
2022-09-20T02:17:41.316Z,11.05
2022-09-20T02:18:41.315Z,11.00
2022-09-20T02:19:41.303Z,11.00
2022-09-20T02:20:41.279Z,11.00
2022-09-20T02:21:41.289Z,11.18
2022-09-20T02:22:41.256Z,11.11
2022-09-20T02:23:41.253Z,11.14
2022-09-20T02:24:41.240Z,11.12
2022-09-20T02:25:41.223Z,11.18
2022-09-20T02:26:41.212Z,11.11
2022-09-20T02:27:41.221Z,11.15
2022-09-20T02:28:41.187Z,11.18
2022-09-20T02:29:41.180Z,11.19
2022-09-20T02:30:41.179Z,11.22
2022-09-20T02:31:41.235Z,11.18
2022-09-20T02:32:41.153Z,11.17
2022-09-20T02:33:41.138Z,11.12
2022-09-20T02:34:41.151Z,11.15
2022-09-20T02:35:41.134Z,11.10
2022-09-20T02:36:41.099Z,11.17
2022-09-20T02:37:41.094Z,11.00
2022-09-20T02:38:41.081Z,11.08
2022-09-20T02:39:41.076Z,11.14
2022-09-20T02:40:41.178Z,11.12
2022-09-20T02:41:41.052Z,11.04
2022-09-20T02:42:41.038Z,10.97
2022-09-20T02:43:41.032Z,11.05
2022-09-20T02:44:41.013Z,11.15
2022-09-20T02:45:41.056Z,11.12
2022-09-20T02:46:41.006Z,11.12
2022-09-20T02:47:40.992Z,11.05
2022-09-20T02:48:40.979Z,11.14
2022-09-20T02:49:40.973Z,11.14
2022-09-20T02:50:40.966Z,11.18
2022-09-20T02:51:40.974Z,11.17
2022-09-20T02:52:40.934Z,11.19
2022-09-20T02:53:40.916Z,11.22
2022-09-20T02:54:40.908Z,11.12
2022-09-20T02:55:40.898Z,11.17
2022-09-20T02:56:40.894Z,11.11
2022-09-20T02:57:40.901Z,11.19
2022-09-20T02:58:40.871Z,11.14
2022-09-20T02:59:40.852Z,11.18
2022-09-20T03:00:40.931Z,11.19
2022-09-20T03:01:40.930Z,11.12
2022-09-20T03:02:40.943Z,11.15
2022-09-20T03:03:40.820Z,11.19
2022-09-20T03:04:40.824Z,11.18
2022-09-20T03:05:40.796Z,11.22
2022-09-20T03:06:40.810Z,11.19
2022-09-20T03:07:40.793Z,11.22
2022-09-20T03:08:40.783Z,11.22
2022-09-20T03:09:40.750Z,11.29
2022-09-20T03:10:40.749Z,11.25
2022-09-20T03:11:40.730Z,11.25
2022-09-20T03:12:40.714Z,11.18
2022-09-20T03:13:40.713Z,11.29
2022-09-20T03:14:40.723Z,11.30
2022-09-20T03:15:40.689Z,11.25
2022-09-20T03:16:40.746Z,11.22
2022-09-20T03:17:40.660Z,11.22
2022-09-20T03:18:40.647Z,11.22
2022-09-20T03:19:40.641Z,11.30
2022-09-20T03:20:40.648Z,11.44
2022-09-20T03:21:40.617Z,11.37
2022-09-20T03:22:40.637Z,11.41
2022-09-20T03:23:40.594Z,11.41
2022-09-20T03:24:40.593Z,11.43
2022-09-20T03:25:40.590Z,11.41
2022-09-20T03:26:40.585Z,11.40
2022-09-20T03:27:40.556Z,11.43
2022-09-20T03:28:40.546Z,11.50
2022-09-20T03:29:40.536Z,11.47
2022-09-20T03:30:40.526Z,11.45
2022-09-20T03:31:40.601Z,11.40
2022-09-20T03:32:40.496Z,11.44
2022-09-20T03:33:40.492Z,11.35
2022-09-20T03:34:40.483Z,11.40
2022-09-20T03:35:40.489Z,11.29
2022-09-20T03:36:40.459Z,11.32
2022-09-20T03:37:40.450Z,11.43
2022-09-20T03:38:40.457Z,11.36
2022-09-20T03:39:40.427Z,11.35
2022-09-20T03:40:45.587Z,11.32
2022-09-20T03:41:40.403Z,11.32
2022-09-20T03:42:40.396Z,11.35
2022-09-20T03:43:40.412Z,11.36
2022-09-20T03:44:40.376Z,11.32
2022-09-20T03:45:40.419Z,11.43
2022-09-20T03:46:40.346Z,11.40
2022-09-20T03:47:40.338Z,11.30
2022-09-20T03:48:40.330Z,11.35
2022-09-20T03:49:40.325Z,11.23
2022-09-20T03:50:40.307Z,11.30
2022-09-20T03:51:40.305Z,11.33
2022-09-20T03:52:40.290Z,11.32
2022-09-20T03:53:40.281Z,11.35
2022-09-20T03:54:40.288Z,11.25
2022-09-20T03:55:40.262Z,11.30
2022-09-20T03:56:40.270Z,11.32
2022-09-20T03:57:40.233Z,11.33
2022-09-20T03:58:40.224Z,11.32
2022-09-20T03:59:40.215Z,11.40
2022-09-20T04:00:40.205Z,11.40
2022-09-20T04:01:40.244Z,11.43
2022-09-20T04:02:40.273Z,11.43
2022-09-20T04:03:40.165Z,11.43
2022-09-20T04:04:50.553Z,11.37
2022-09-20T04:05:40.143Z,11.37
2022-09-20T04:06:40.181Z,11.35
2022-09-20T04:07:40.226Z,11.41
2022-09-20T04:08:40.519Z,11.47
2022-09-20T04:09:40.109Z,11.43
2022-09-20T04:10:40.112Z,11.54
2022-09-20T04:11:40.086Z,11.51
2022-09-20T04:12:40.071Z,11.41
2022-09-20T04:13:40.074Z,11.43
2022-09-20T04:14:40.045Z,11.37
2022-09-20T04:15:40.058Z,11.37
2022-09-20T04:16:40.237Z,11.37
2022-09-20T04:17:40.020Z,11.33
2022-09-20T04:18:40.002Z,11.45
2022-09-20T04:19:40.014Z,11.36
2022-09-20T04:20:39.981Z,11.40
2022-09-20T04:21:39.969Z,11.36
2022-09-20T04:22:39.973Z,11.41
2022-09-20T04:23:39.948Z,11.44
2022-09-20T04:24:39.956Z,11.43
2022-09-20T04:25:43.732Z,11.54
2022-09-20T04:26:39.940Z,11.51
2022-09-20T04:27:39.912Z,11.54
2022-09-20T04:28:39.891Z,11.43
2022-09-20T04:29:39.933Z,11.43
2022-09-20T04:30:39.911Z,11.41
2022-09-20T04:31:39.935Z,11.44
2022-09-20T04:32:39.859Z,11.44
2022-09-20T04:33:39.852Z,11.50
2022-09-20T04:34:39.837Z,11.40
2022-09-20T04:35:39.840Z,11.51
2022-09-20T04:36:39.816Z,11.37
2022-09-20T04:37:39.797Z,11.41
2022-09-20T04:38:39.789Z,11.48
2022-09-20T04:39:39.785Z,11.40
2022-09-20T04:40:39.823Z,11.40
2022-09-20T04:41:39.761Z,11.45
2022-09-20T04:42:39.765Z,11.40
2022-09-20T04:43:39.732Z,11.40
2022-09-20T04:44:39.732Z,11.41
2022-09-20T04:45:39.788Z,11.43
2022-09-20T04:46:39.720Z,11.41
2022-09-20T04:47:39.695Z,11.40
2022-09-20T04:48:39.677Z,11.44
2022-09-20T04:49:39.673Z,11.43
2022-09-20T04:50:39.655Z,11.43
2022-09-20T04:51:39.656Z,11.51
2022-09-20T04:52:39.638Z,11.43
2022-09-20T04:53:39.627Z,11.54
2022-09-20T04:54:39.629Z,11.52
2022-09-20T04:55:39.661Z,11.51
2022-09-20T04:56:39.825Z,11.43
2022-09-20T04:57:39.605Z,11.47
2022-09-20T04:58:39.594Z,11.47
2022-09-20T04:59:39.563Z,11.50
2022-09-20T05:00:39.574Z,11.59
2022-09-20T05:01:39.609Z,11.50
2022-09-20T05:02:39.623Z,11.54
2022-09-20T05:03:39.520Z,11.51
2022-09-20T05:04:39.514Z,11.47
2022-09-20T05:05:39.503Z,11.54
2022-09-20T05:06:39.492Z,11.60
2022-09-20T05:07:39.482Z,11.57
2022-09-20T05:08:39.469Z,11.54
2022-09-20T05:09:39.458Z,11.57
2022-09-20T05:10:39.442Z,11.55
2022-09-20T05:11:39.433Z,11.55
2022-09-20T05:12:39.445Z,11.59
2022-09-20T05:13:39.409Z,11.59
2022-09-20T05:14:39.446Z,11.59
2022-09-20T05:15:39.392Z,11.48
2022-09-20T05:16:41.969Z,11.50
2022-09-20T05:17:39.378Z,11.54
2022-09-20T05:18:39.367Z,11.59
2022-09-20T05:19:39.350Z,11.51
2022-09-20T05:20:39.357Z,11.52
2022-09-20T05:21:39.322Z,11.52
2022-09-20T05:22:39.425Z,11.59
2022-09-20T05:23:39.598Z,11.57
2022-09-20T05:24:39.295Z,11.55
2022-09-20T05:25:39.283Z,11.57
2022-09-20T05:26:39.282Z,11.55
2022-09-20T05:27:39.255Z,11.63
2022-09-20T05:28:39.266Z,11.57
2022-09-20T05:29:39.244Z,11.63
2022-09-20T05:30:39.247Z,11.68
2022-09-20T05:31:39.311Z,11.70
2022-09-20T05:32:39.206Z,11.83
2022-09-20T05:33:39.227Z,11.80
2022-09-20T05:34:39.202Z,11.66
2022-09-20T05:35:39.183Z,11.73
2022-09-20T05:36:39.170Z,11.68
2022-09-20T05:37:39.171Z,11.73
2022-09-20T05:38:39.147Z,11.77
2022-09-20T05:39:39.144Z,11.75
2022-09-20T05:40:39.188Z,11.80
2022-09-20T05:41:39.106Z,11.87
2022-09-20T05:42:39.107Z,11.88
2022-09-20T05:43:39.088Z,11.90
2022-09-20T05:44:39.089Z,11.94
2022-09-20T05:45:39.112Z,11.95
2022-09-20T05:46:39.070Z,11.83
2022-09-20T05:47:39.061Z,11.87
2022-09-20T05:48:39.029Z,11.77
2022-09-20T05:49:39.034Z,11.86
2022-09-20T05:50:39.012Z,11.84
2022-09-20T05:51:39.006Z,11.90
2022-09-20T05:52:38.997Z,11.91
2022-09-20T05:53:38.995Z,12.07
2022-09-20T05:54:38.979Z,11.97
2022-09-20T05:55:38.996Z,12.00
2022-09-20T05:56:38.960Z,11.99
2022-09-20T05:57:38.945Z,11.99
2022-09-20T05:58:38.923Z,11.97
2022-09-20T05:59:38.921Z,11.91
2022-09-20T06:00:38.909Z,11.87
2022-09-20T06:01:38.911Z,11.91
2022-09-20T06:02:38.959Z,11.87
2022-09-20T06:03:38.891Z,11.94
2022-09-20T06:04:38.863Z,11.94
2022-09-20T06:05:38.870Z,12.04
2022-09-20T06:06:38.878Z,11.99
2022-09-20T06:07:38.883Z,11.90
2022-09-20T06:08:38.954Z,12.09
2022-09-20T06:09:38.814Z,12.03
2022-09-20T06:10:38.803Z,12.07
2022-09-20T06:11:38.815Z,12.15
2022-09-20T06:12:38.788Z,12.22
2022-09-20T06:13:38.774Z,12.27
2022-09-20T06:14:38.761Z,12.32
2022-09-20T06:15:38.751Z,12.35
2022-09-20T06:16:39.624Z,12.35
2022-09-20T06:17:38.742Z,12.29
2022-09-20T06:18:38.726Z,12.35
2022-09-20T06:19:38.698Z,12.35
2022-09-20T06:20:38.697Z,12.32
2022-09-20T06:21:38.685Z,12.32
2022-09-20T06:22:38.739Z,12.43
2022-09-20T06:23:38.653Z,12.46
2022-09-20T06:24:38.651Z,12.47
2022-09-20T06:25:38.633Z,12.45
2022-09-20T06:26:38.637Z,12.57
2022-09-20T06:27:38.619Z,12.57
2022-09-20T06:28:38.613Z,12.55
2022-09-20T06:29:38.599Z,12.70
2022-09-20T06:30:38.626Z,12.75
2022-09-20T06:31:38.568Z,12.82
2022-09-20T06:32:38.566Z,12.90
2022-09-20T06:33:38.546Z,12.91
2022-09-20T06:34:38.553Z,12.85
2022-09-20T06:35:38.550Z,12.93
2022-09-20T06:36:38.538Z,13.00
2022-09-20T06:37:38.513Z,13.00
2022-09-20T06:38:38.501Z,13.05
2022-09-20T06:39:38.646Z,13.15
2022-09-20T06:40:38.526Z,13.12
2022-09-20T06:41:38.460Z,13.22
2022-09-20T06:42:38.477Z,13.22
2022-09-20T06:43:38.461Z,13.35
2022-09-20T06:44:38.432Z,13.42
2022-09-20T06:45:38.568Z,13.39
2022-09-20T06:46:38.464Z,13.49
2022-09-20T06:47:38.966Z,13.50
2022-09-20T06:48:38.382Z,13.53
2022-09-20T06:49:38.464Z,13.47
2022-09-20T06:50:38.387Z,13.52
2022-09-20T06:51:38.372Z,13.50
2022-09-20T06:52:38.350Z,13.57
2022-09-20T06:53:38.334Z,13.41
2022-09-20T06:54:38.318Z,13.28
2022-09-20T06:55:38.305Z,13.31
2022-09-20T06:56:38.314Z,13.25
2022-09-20T06:57:38.292Z,13.25
2022-09-20T06:58:38.289Z,13.22
2022-09-20T06:59:38.261Z,13.22
2022-09-20T07:00:38.247Z,13.19
2022-09-20T07:01:38.355Z,13.11
2022-09-20T07:02:38.337Z,13.12
2022-09-20T07:03:38.228Z,13.13
2022-09-20T07:04:38.215Z,13.04
2022-09-20T07:05:38.205Z,13.13
2022-09-20T07:06:38.206Z,13.11
2022-09-20T07:07:38.206Z,13.11
2022-09-20T07:08:38.165Z,13.16
2022-09-20T07:09:38.157Z,13.16
2022-09-20T07:10:38.152Z,13.01
2022-09-20T07:11:38.140Z,12.95
2022-09-20T07:12:38.121Z,12.98
2022-09-20T07:13:38.125Z,12.93
2022-09-20T07:14:38.114Z,12.93
2022-09-20T07:15:38.099Z,12.83
2022-09-20T07:16:38.114Z,12.83
2022-09-20T07:17:38.065Z,12.85
2022-09-20T07:18:38.072Z,12.86
2022-09-20T07:19:38.044Z,13.04
2022-09-20T07:20:38.041Z,12.95
2022-09-20T07:21:38.041Z,12.95
2022-09-20T07:22:38.057Z,12.94
2022-09-20T07:23:38.007Z,12.86
2022-09-20T07:24:37.996Z,12.94
2022-09-20T07:25:37.982Z,13.01
2022-09-20T07:26:37.969Z,12.86
2022-09-20T07:27:37.965Z,12.87
2022-09-20T07:28:37.967Z,12.86
2022-09-20T07:29:37.944Z,12.91
2022-09-20T07:30:37.937Z,12.90
2022-09-20T07:31:37.944Z,12.91
2022-09-20T07:32:37.921Z,12.83
2022-09-20T07:33:37.924Z,12.82
2022-09-20T07:34:37.889Z,12.86
2022-09-20T07:35:37.890Z,12.90
2022-09-20T07:36:37.880Z,12.98
2022-09-20T07:37:37.862Z,12.86
2022-09-20T07:38:37.878Z,12.98
2022-09-20T07:39:37.827Z,13.01
2022-09-20T07:40:37.860Z,13.01
2022-09-20T07:41:37.812Z,13.15
2022-09-20T07:42:37.808Z,13.33
2022-09-20T07:43:37.791Z,13.37
2022-09-20T07:44:37.835Z,13.42
2022-09-20T07:45:37.806Z,13.50
2022-09-20T07:46:37.767Z,13.50
2022-09-20T07:47:37.748Z,13.57
2022-09-20T07:48:37.751Z,13.68
2022-09-20T07:49:37.727Z,13.72
2022-09-20T07:50:37.721Z,13.77
2022-09-20T07:51:37.710Z,13.86
2022-09-20T07:52:37.708Z,13.79
2022-09-20T07:53:37.676Z,13.79
2022-09-20T07:54:37.689Z,13.97
2022-09-20T07:55:37.670Z,13.79
2022-09-20T07:56:37.650Z,13.68
2022-09-20T07:57:37.643Z,13.72
2022-09-20T07:58:37.645Z,13.72
2022-09-20T07:59:37.621Z,13.75
2022-09-20T08:00:37.603Z,13.86
2022-09-20T08:01:37.606Z,13.95
2022-09-20T08:02:37.647Z,14.11
2022-09-20T08:03:37.573Z,14.03
2022-09-20T08:04:37.573Z,14.15
2022-09-20T08:05:37.562Z,14.20
2022-09-20T08:06:37.533Z,14.30
2022-09-20T08:07:37.545Z,14.43
2022-09-20T08:08:37.516Z,14.47
2022-09-20T08:09:37.521Z,14.63
2022-09-20T08:10:37.531Z,14.77
2022-09-20T08:11:37.508Z,14.69
2022-09-20T08:14:38.479Z,14.97
2022-09-20T08:15:37.455Z,14.96
2022-09-20T08:16:37.522Z,15.07
2022-09-20T08:17:37.420Z,15.17
2022-09-20T08:18:37.413Z,15.24
2022-09-20T08:19:37.395Z,15.29
2022-09-20T08:20:37.409Z,15.40
2022-09-20T08:21:37.374Z,15.39
2022-09-20T08:22:37.375Z,15.35
2022-09-20T08:23:37.368Z,15.39
2022-09-20T08:24:37.354Z,15.40
2022-09-20T08:25:37.338Z,15.52
2022-09-20T08:26:37.359Z,15.54
2022-09-20T08:27:37.317Z,15.57
2022-09-20T08:28:37.294Z,15.77
2022-09-20T08:29:37.286Z,15.77
2022-09-20T08:30:37.278Z,15.82
2022-09-20T08:31:37.392Z,15.94
2022-09-20T08:32:37.277Z,16.04
2022-09-20T08:33:37.248Z,16.09
2022-09-20T08:34:37.250Z,16.13
2022-09-20T08:35:38.519Z,16.17
2022-09-20T08:36:37.422Z,16.23
2022-09-20T08:37:37.213Z,16.46
2022-09-20T08:40:38.333Z,16.71
2022-09-20T08:41:37.161Z,16.83
2022-09-20T08:42:43.643Z,16.89
2022-09-20T08:43:38.661Z,17.01
2022-09-20T08:44:37.136Z,17.08
2022-09-20T08:45:37.121Z,17.27
2022-09-20T08:46:37.174Z,17.42
2022-09-20T08:47:37.117Z,17.59
2022-09-20T08:48:37.102Z,17.83
2022-09-20T08:49:37.070Z,17.98
2022-09-20T08:50:37.065Z,18.31
2022-09-20T08:51:37.073Z,18.71
2022-09-20T08:52:37.354Z,19.31
2022-09-20T08:53:37.037Z,20.07
2022-09-20T08:54:37.017Z,21.45
2022-09-20T08:55:37.289Z,22.55
2022-09-20T08:56:37.010Z,22.91
2022-09-20T08:57:37.004Z,24.30
2022-09-20T08:58:36.991Z,25.63
2022-09-20T08:59:36.973Z,26.38
2022-09-20T09:00:36.965Z,27.18
2022-09-20T09:01:36.940Z,28.26
2022-09-20T09:02:37.016Z,29.23
2022-09-20T09:03:36.939Z,30.28
2022-09-20T09:04:36.917Z,30.92
2022-09-20T09:05:36.899Z,30.87
2022-09-20T09:06:36.893Z,31.29
2022-09-20T09:07:36.888Z,31.92
2022-09-20T09:08:38.129Z,32.45
2022-09-20T09:09:37.716Z,33.00
2022-09-20T09:10:42.686Z,32.80
2022-09-20T09:11:37.862Z,31.58
2022-09-20T09:12:36.829Z,30.66
2022-09-20T09:13:36.834Z,29.29
2022-09-20T09:14:36.831Z,29.31
2022-09-20T09:15:36.810Z,29.59
2022-09-20T09:16:36.860Z,30.13
2022-09-20T09:17:36.775Z,30.68
2022-09-20T09:18:36.781Z,29.91
2022-09-20T09:19:36.770Z,30.63
2022-09-20T09:20:36.757Z,31.29
2022-09-20T09:21:36.746Z,31.59
2022-09-20T09:22:36.738Z,30.23
2022-09-20T09:23:36.718Z,29.04
2022-09-20T09:24:36.717Z,28.70
2022-09-20T09:25:36.699Z,28.75
2022-09-20T09:26:36.702Z,29.79
2022-09-20T09:27:36.678Z,30.70
2022-09-20T09:28:36.679Z,31.51
2022-09-20T09:29:36.659Z,31.43
2022-09-20T09:30:36.685Z,32.16
2022-09-20T09:31:36.694Z,33.15
2022-09-20T09:32:36.625Z,32.22
2022-09-20T09:33:36.618Z,30.90
2022-09-20T09:34:36.633Z,29.59
2022-09-20T09:35:36.606Z,28.93
2022-09-20T09:36:36.594Z,28.23
2022-09-20T09:37:36.578Z,27.64
2022-09-20T09:38:36.571Z,27.74
2022-09-20T09:39:36.562Z,28.94
2022-09-20T09:40:36.651Z,29.82
2022-09-20T09:41:36.564Z,29.91
2022-09-20T09:42:36.535Z,30.50
2022-09-20T09:43:36.527Z,29.47
2022-09-20T09:44:36.513Z,28.52
2022-09-20T09:45:36.572Z,26.85
2022-09-20T09:46:36.504Z,27.27
2022-09-20T09:47:36.496Z,28.47
2022-09-20T09:48:37.988Z,28.39
2022-09-20T09:49:36.684Z,29.73
2022-09-20T09:50:36.461Z,30.57
2022-09-20T09:51:36.457Z,29.41
2022-09-20T09:52:36.434Z,30.00
2022-09-20T09:53:36.427Z,30.83
2022-09-20T09:54:36.413Z,30.54
2022-09-20T09:55:36.394Z,29.97
2022-09-20T09:56:36.406Z,30.55
2022-09-20T09:57:36.402Z,30.85
2022-09-20T09:58:36.378Z,30.24
2022-09-20T09:59:36.369Z,29.08
2022-09-20T10:00:36.366Z,27.92
2022-09-20T10:01:36.445Z,26.89
2022-09-20T10:02:36.445Z,25.91
2022-09-20T10:03:36.342Z,25.44
2022-09-20T10:04:36.314Z,25.31
2022-09-20T10:05:46.718Z,24.93
2022-09-20T10:06:36.288Z,24.42
2022-09-20T10:07:36.295Z,23.99
2022-09-20T10:08:36.314Z,23.83
2022-09-20T10:09:36.312Z,23.13
2022-09-20T10:10:36.286Z,22.20
2022-09-20T10:11:36.244Z,21.85
2022-09-20T10:12:36.227Z,21.77
2022-09-20T10:13:40.454Z,21.82
2022-09-20T10:14:36.209Z,21.72
2022-09-20T10:15:36.251Z,21.57
2022-09-20T10:16:36.201Z,21.33
2022-09-20T10:17:36.180Z,21.42
2022-09-20T10:18:36.191Z,21.45
2022-09-20T10:19:36.158Z,21.40
2022-09-20T10:20:36.154Z,21.39
2022-09-20T10:21:36.212Z,21.43
2022-09-20T10:22:36.148Z,21.39
2022-09-20T10:24:01.568Z,21.35
2022-09-20T10:24:37.119Z,21.35
2022-09-20T10:25:36.101Z,21.12
2022-09-20T10:26:36.113Z,21.14
2022-09-20T10:27:36.095Z,21.09
2022-09-20T10:28:36.132Z,21.33
2022-09-20T10:29:36.066Z,21.30
2022-09-20T10:30:36.166Z,21.52
2022-09-20T10:31:36.083Z,21.50
2022-09-20T10:32:36.058Z,21.32
2022-09-20T10:33:36.021Z,21.43
2022-09-20T10:34:36.035Z,21.36
2022-09-20T10:35:36.106Z,20.92
2022-09-20T10:36:35.990Z,20.74
2022-09-20T10:37:35.986Z,20.28
2022-09-20T10:38:35.972Z,20.11
2022-09-20T10:39:35.973Z,19.99
2022-09-20T10:40:36.089Z,20.16
2022-09-20T10:41:35.955Z,20.31
2022-09-20T10:42:35.948Z,20.37
2022-09-20T10:43:35.924Z,20.43
2022-09-20T10:44:35.919Z,20.50
2022-09-20T10:46:08.309Z,20.58
2022-09-20T10:46:36.943Z,20.63
2022-09-20T10:47:35.926Z,20.59
2022-09-20T10:48:35.861Z,20.78
2022-09-20T10:49:35.844Z,20.80
2022-09-20T10:50:36.753Z,20.44
2022-09-20T10:51:35.832Z,19.89
2022-09-20T10:52:35.845Z,19.62
2022-09-20T10:53:35.803Z,19.58
2022-09-20T10:54:35.796Z,19.49
2022-09-20T10:55:35.797Z,19.37
2022-09-20T10:56:35.783Z,19.04
2022-09-20T10:57:35.774Z,18.78
2022-09-20T10:58:35.761Z,18.40
2022-09-20T10:59:35.740Z,18.16
2022-09-20T11:00:35.747Z,17.97
2022-09-20T11:01:35.811Z,17.85
2022-09-20T11:02:35.775Z,17.76
2022-09-20T11:03:35.709Z,17.79
2022-09-20T11:04:35.690Z,17.72
2022-09-20T11:05:35.689Z,17.51
2022-09-20T11:06:35.688Z,17.45
2022-09-20T11:07:35.664Z,17.24
2022-09-20T11:08:35.645Z,17.23
2022-09-20T11:09:35.649Z,17.23
2022-09-20T11:10:35.662Z,17.27
2022-09-20T11:11:35.615Z,17.14
2022-09-20T11:12:35.601Z,17.06
2022-09-20T11:13:35.593Z,17.14
2022-09-20T11:14:35.593Z,17.14
2022-09-20T11:15:35.584Z,17.08
2022-09-20T11:16:35.637Z,17.12
2022-09-20T11:17:35.551Z,17.02
2022-09-20T11:18:35.535Z,17.11
2022-09-20T11:19:35.531Z,17.16
2022-09-20T11:20:35.541Z,17.16
2022-09-20T11:21:35.560Z,17.19
2022-09-20T11:22:35.514Z,17.14
2022-09-20T11:23:35.510Z,17.14
2022-09-20T11:24:35.470Z,17.23
2022-09-20T11:25:35.460Z,17.06
2022-09-20T11:26:35.487Z,17.01
2022-09-20T11:27:35.470Z,17.01
2022-09-20T11:28:35.445Z,16.97
2022-09-20T11:29:35.428Z,16.76
2022-09-20T11:30:35.412Z,16.78
2022-09-20T11:31:35.443Z,16.69
2022-09-20T11:32:35.398Z,16.43
2022-09-20T11:33:39.317Z,16.39
2022-09-20T11:34:36.386Z,16.17
2022-09-20T11:35:35.384Z,16.09
2022-09-20T11:36:35.346Z,15.90
2022-09-20T11:37:35.328Z,15.75
2022-09-20T11:38:35.339Z,15.70
2022-09-20T11:39:35.319Z,15.62
2022-09-20T11:40:35.373Z,15.42
2022-09-20T11:41:35.314Z,15.28
2022-09-20T11:42:35.272Z,15.21
2022-09-20T11:43:35.281Z,14.97
2022-09-20T11:44:35.264Z,14.91
2022-09-20T11:45:35.334Z,14.97
2022-09-20T11:46:35.293Z,14.86
2022-09-20T11:47:53.965Z,14.94
2022-09-20T11:48:36.237Z,15.02
2022-09-20T11:49:35.209Z,15.07
2022-09-20T11:50:35.199Z,15.10
2022-09-20T11:51:35.182Z,15.14
2022-09-20T11:52:35.172Z,15.18
2022-09-20T11:53:36.994Z,15.11
2022-09-20T11:54:35.178Z,15.10
2022-09-20T11:55:35.177Z,15.09
2022-09-20T11:56:35.125Z,15.00
2022-09-20T11:57:35.117Z,15.14
2022-09-20T11:58:35.109Z,15.21
2022-09-20T11:59:35.114Z,15.25
2022-09-20T12:00:35.130Z,15.31
2022-09-20T12:01:35.069Z,15.43
2022-09-20T12:02:35.260Z,15.58
2022-09-20T12:03:35.113Z,15.73
2022-09-20T12:04:35.574Z,15.88
2022-09-20T12:05:35.058Z,16.08
2022-09-20T12:06:35.031Z,16.32
2022-09-20T12:07:35.029Z,16.42
2022-09-20T12:08:34.991Z,16.53
2022-09-20T12:09:34.996Z,16.64
2022-09-20T12:10:35.009Z,16.72
2022-09-20T12:11:34.961Z,16.65
2022-09-20T12:12:34.959Z,16.78
2022-09-20T12:13:34.985Z,16.81
2022-09-20T12:14:34.938Z,16.76
2022-09-20T12:15:34.949Z,16.78
2022-09-20T12:16:34.977Z,16.83
2022-09-20T12:17:34.925Z,16.79
2022-09-20T12:18:34.881Z,16.81
2022-09-20T12:19:34.928Z,16.78
2022-09-20T12:20:34.887Z,16.86
2022-09-20T12:21:34.888Z,16.93
2022-09-20T12:22:34.859Z,16.91
2022-09-20T12:23:34.851Z,16.93
2022-09-20T12:24:34.823Z,17.08
2022-09-20T12:25:34.837Z,17.12
2022-09-20T12:26:34.852Z,17.29
2022-09-20T12:27:34.800Z,17.16
2022-09-20T12:28:34.838Z,17.12
2022-09-20T12:29:34.788Z,17.05
2022-09-20T12:30:34.761Z,17.05
2022-09-20T12:31:34.827Z,16.96
2022-09-20T12:32:34.763Z,16.89
2022-09-20T12:33:34.734Z,16.78
2022-09-20T12:34:34.716Z,16.66
2022-09-20T12:35:34.779Z,16.66
2022-09-20T12:36:34.696Z,16.60
2022-09-20T12:37:34.695Z,16.71
2022-09-20T12:38:34.703Z,16.51
2022-09-20T12:39:34.673Z,16.43
2022-09-20T12:40:34.710Z,16.51
2022-09-20T12:41:34.628Z,16.54
2022-09-20T12:42:34.650Z,16.60
2022-09-20T12:43:34.616Z,16.78
2022-09-20T12:44:34.601Z,16.71
2022-09-20T12:45:34.633Z,16.72
2022-09-20T12:46:34.608Z,16.81
2022-09-20T12:47:34.599Z,16.99
2022-09-20T12:48:34.597Z,16.89
2022-09-20T12:49:34.558Z,16.97
2022-09-20T12:50:34.548Z,17.11
2022-09-20T12:51:34.536Z,17.01
2022-09-20T12:52:34.523Z,17.04
2022-09-20T12:53:34.502Z,17.05
2022-09-20T12:54:34.517Z,17.04
2022-09-20T12:55:34.506Z,16.89
2022-09-20T12:56:34.471Z,16.79